Terminal Aerodrome Forecast
Issued by NWS Charleston, WV

Home | Current Version | Previous Version | Text Only | Print | Product List | Glossary On
Versions: 1 2 3 4 5 6 7 8 9 10 11 12 13 14 15 16 17 18 19 20 21 22 23 24
000
FTUS41 KRLX 282300 RRA
TAFCRW
TAF
KCRW 282345Z 2900/2924 32005KT 1 1/2SM -DZ BR OVC003
     FM290400 00000KT 1/2SM FG OVC002
     FM291300 VRB03KT 1SM BR SCT001 BKN006
     FM291400 02004KT 3SM BR BKN010
     FM291700 01004KT P6SM BKN015
     FM292100 36004KT P6SM BKN025=

USA.gov is the U.S. government's official web portal to all federal, state and local government web resources and services.